Cruise inventory

RRS Frederick Russell FR17/87

Cruise summary report

Cruise Info. 
Ship name (ship code)RRS Frederick Russell (74GG)
Cruise identifierFR17/87
Cruise period1987-08-04 — 1987-08-24
StatusCompleted
ObjectivesPhysical oceanography
Chief scientistToby J Sherwin (University of Wales, Bangor School of Ocean Sciences)
ProjectNANSEN
Coordinating bodyICES
Ocean/sea areas 
GeneralNorth Sea
Norwegian Sea
North East Atlantic Ocean (limit 40W)
SpecificN.W. Continental Shelf of UK
Measurements 
Physical oceanography 
CTD stationsQuantity: number of stations = 206
Description: 138 in NANSEN data set
Subsurface temperature measurementsQuantity: number of stations = 6
Current metersQuantity: number of stations = 6
Description: 6 deployed;24 hours
Current profiler (eg ADCP)Description: ADCP profiler
Meteorology 
Other meteorological measurementsDescription: wind speed,mainly cont.
Data held at BODC 
Series/Profiles 
206  CTD/STD cast
Electrical conductivity of the water column
Vertical spatial coordinates
Salinity of the water column
Temperature of the water column
Electrical conductivity of the water column
Vertical spatial coordinates
Salinity of the water column
Temperature of the water column

BODC idDate/TimeLocationDoc.
3561971987-08-19 18:25  — 1987-08-19 18:54 55° 55' 0" N  9° 16' 0" W  View metadata report for BODC series reference number 356197
3562041987-08-21 07:04  — 1987-08-21 07:30 55° 55' 0" N  9° 16' 0" W  View metadata report for BODC series reference number 356204
3562161987-08-19 22:18 56° 1' 0" N  9° 15' 0" W  View metadata report for BODC series reference number 356216
3562281987-08-19 23:19 56° 1' 0" N  9° 15' 0" W  View metadata report for BODC series reference number 356228
3562411987-08-20 00:13 56° 1' 0" N  9° 15' 0" W  View metadata report for BODC series reference number 356241
3562531987-08-20 01:11 56° 1' 0" N  9° 15' 0" W  View metadata report for BODC series reference number 356253
3562651987-08-20 02:10 56° 1' 0" N  9° 15' 0" W  View metadata report for BODC series reference number 356265
3562771987-08-20 03:07 56° 1' 0" N  9° 15' 0" W  View metadata report for BODC series reference number 356277
3562891987-08-20 04:01 56° 1' 0" N  9° 15' 0" W  View metadata report for BODC series reference number 356289
3562901987-08-20 05:01 56° 1' 0" N  9° 15' 0" W  View metadata report for BODC series reference number 356290
3563081987-08-20 06:00 56° 1' 0" N  9° 15' 0" W  View metadata report for BODC series reference number 356308
3563211987-08-20 07:00 56° 1' 0" N  9° 15' 0" W  View metadata report for BODC series reference number 356321
3563331987-08-20 08:02 56° 1' 0" N  9° 15' 0" W  View metadata report for BODC series reference number 356333
3563451987-08-20 09:21 56° 1' 0" N  9° 15' 0" W  View metadata report for BODC series reference number 356345
3563571987-08-20 10:24 56° 1' 0" N  9° 15' 0" W  View metadata report for BODC series reference number 356357
3563691987-08-20 11:31 56° 1' 0" N  9° 15' 0" W  View metadata report for BODC series reference number 356369
3563701987-08-20 12:31 56° 1' 0" N  9° 15' 0" W  View metadata report for BODC series reference number 356370
3563821987-08-20 13:43 56° 1' 0" N  9° 15' 0" W  View metadata report for BODC series reference number 356382
3563941987-08-20 14:40 56° 1' 0" N  9° 15' 0" W  View metadata report for BODC series reference number 356394
3564011987-08-20 15:39 56° 1' 0" N  9° 15' 0" W  View metadata report for BODC series reference number 356401
3564131987-08-20 17:02 56° 1' 0" N  9° 15' 0" W  View metadata report for BODC series reference number 356413
3564251987-08-20 18:00 56° 1' 0" N  9° 15' 0" W  View metadata report for BODC series reference number 356425
3561361987-08-19 12:24  — 1987-08-19 13:40 56° 0' 0" N  9° 52' 59" W  View metadata report for BODC series reference number 356136
3561481987-08-19 14:32  — 1987-08-19 15:55 56° 0' 0" N  9° 40' 0" W  View metadata report for BODC series reference number 356148
3561611987-08-19 16:53  — 1987-08-19 17:38 56° 0' 0" N  9° 26' 59" W  View metadata report for BODC series reference number 356161
3561731987-08-19 20:18  — 1987-08-19 20:48 56° 4' 59" N  9° 15' 0" W  View metadata report for BODC series reference number 356173
3561851987-08-21 08:35  — 1987-08-21 09:04 56° 4' 59" N  9° 15' 0" W  View metadata report for BODC series reference number 356185
3556061987-08-17 13:00  — 1987-08-17 14:00 60° 4' 59" N  5° 57' 0" W  View metadata report for BODC series reference number 355606
3556181987-08-16 16:35  — 1987-08-16 17:16 59° 57' 0" N  6° 0' 0" W  View metadata report for BODC series reference number 355618
3556311987-08-16 18:05  — 1987-08-16 19:07 59° 53' 59" N  6° 2' 59" W  View metadata report for BODC series reference number 355631
3556431987-08-16 19:48 59° 53' 59" N  6° 2' 59" W  View metadata report for BODC series reference number 355643
3556551987-08-16 20:00 59° 53' 59" N  6° 2' 59" W  View metadata report for BODC series reference number 355655
3556671987-08-16 20:41 59° 53' 59" N  6° 2' 59" W  View metadata report for BODC series reference number 355667
3556791987-08-16 21:00 59° 53' 59" N  6° 2' 59" W  View metadata report for BODC series reference number 355679
3556801987-08-16 21:35 59° 53' 59" N  6° 2' 59" W  View metadata report for BODC series reference number 355680
3556921987-08-16 22:00 59° 53' 59" N  6° 2' 59" W  View metadata report for BODC series reference number 355692
3557111987-08-16 22:42 59° 53' 59" N  6° 2' 59" W  View metadata report for BODC series reference number 355711
3557231987-08-16 23:01 59° 53' 59" N  6° 2' 59" W  View metadata report for BODC series reference number 355723
3557351987-08-16 23:42 59° 53' 59" N  6° 2' 59" W  View metadata report for BODC series reference number 355735
3557471987-08-17 00:00 59° 53' 59" N  6° 2' 59" W  View metadata report for BODC series reference number 355747
3557591987-08-17 00:42 59° 53' 59" N  6° 2' 59" W  View metadata report for BODC series reference number 355759
3557601987-08-17 01:01 59° 53' 59" N  6° 2' 59" W  View metadata report for BODC series reference number 355760
3557721987-08-17 01:45 59° 53' 59" N  6° 2' 59" W  View metadata report for BODC series reference number 355772
3557841987-08-17 02:01 59° 53' 59" N  6° 2' 59" W  View metadata report for BODC series reference number 355784
3557961987-08-17 02:43 59° 53' 59" N  6° 2' 59" W  View metadata report for BODC series reference number 355796
3558031987-08-17 03:00 59° 53' 59" N  6° 2' 59" W  View metadata report for BODC series reference number 355803
3558151987-08-17 03:41 59° 53' 59" N  6° 2' 59" W  View metadata report for BODC series reference number 355815
3558271987-08-17 04:02 59° 53' 59" N  6° 2' 59" W  View metadata report for BODC series reference number 355827
3558391987-08-17 04:41 59° 53' 59" N  6° 2' 59" W  View metadata report for BODC series reference number 355839
3558401987-08-17 05:01 59° 53' 59" N  6° 2' 59" W  View metadata report for BODC series reference number 355840
3558521987-08-17 05:44 59° 53' 59" N  6° 2' 59" W  View metadata report for BODC series reference number 355852
3558641987-08-17 06:00 59° 53' 59" N  6° 2' 59" W  View metadata report for BODC series reference number 355864
3558761987-08-17 06:43 59° 53' 59" N  6° 2' 59" W  View metadata report for BODC series reference number 355876
3558881987-08-17 07:00 59° 53' 59" N  6° 2' 59" W  View metadata report for BODC series reference number 355888
3559071987-08-17 07:43 59° 53' 59" N  6° 2' 59" W  View metadata report for BODC series reference number 355907
3559191987-08-17 09:16 59° 53' 59" N  6° 2' 59" W  View metadata report for BODC series reference number 355919
3559201987-08-17 10:10  — 1987-08-17 11:00 59° 53' 59" N  6° 2' 59" W  View metadata report for BODC series reference number 355920
3559321987-08-16 01:04 59° 46' 59" N  6° 7' 0" W  View metadata report for BODC series reference number 355932
3559441987-08-16 02:03 59° 46' 59" N  6° 7' 0" W  View metadata report for BODC series reference number 355944
3559561987-08-16 03:24  — 1987-08-16 05:53 59° 46' 59" N  6° 7' 0" W  View metadata report for BODC series reference number 355956
3559681987-08-15 09:35  — 1987-08-15 10:50 59° 46' 59" N  6° 7' 0" W  View metadata report for BODC series reference number 355968
3559811987-08-15 11:38 59° 46' 59" N  6° 7' 0" W  View metadata report for BODC series reference number 355981
3559931987-08-15 12:56 59° 46' 59" N  6° 7' 0" W  View metadata report for BODC series reference number 355993
3560071987-08-15 14:00 59° 46' 59" N  6° 7' 0" W  View metadata report for BODC series reference number 356007
3560191987-08-15 15:07 59° 46' 59" N  6° 7' 0" W  View metadata report for BODC series reference number 356019
3560201987-08-15 16:25 59° 46' 59" N  6° 7' 0" W  View metadata report for BODC series reference number 356020
3560321987-08-15 17:32 59° 46' 59" N  6° 7' 0" W  View metadata report for BODC series reference number 356032
3560441987-08-15 19:08 59° 46' 59" N  6° 7' 0" W  View metadata report for BODC series reference number 356044
3560561987-08-15 20:02 59° 46' 59" N  6° 7' 0" W  View metadata report for BODC series reference number 356056
3560681987-08-15 21:07 59° 46' 59" N  6° 7' 0" W  View metadata report for BODC series reference number 356068
3560811987-08-15 22:00 59° 46' 59" N  6° 7' 0" W  View metadata report for BODC series reference number 356081
3560931987-08-15 23:02 59° 46' 59" N  6° 7' 0" W  View metadata report for BODC series reference number 356093
3561001987-08-16 00:01 59° 46' 59" N  6° 7' 0" W  View metadata report for BODC series reference number 356100
3561121987-08-16 10:09  — 1987-08-16 10:29 59° 40' 0" N  6° 12' 0" W  View metadata report for BODC series reference number 356112
3561241987-08-19 08:28  — 1987-08-19 10:18 56° 0' 0" N  10° 30' 0" W  View metadata report for BODC series reference number 356124
3555511987-08-16 08:50  — 1987-08-16 09:14 59° 40' 0" N  6° 25' 59" W  View metadata report for BODC series reference number 355551
3555631987-08-16 11:35  — 1987-08-16 11:59 59° 40' 59" N  5° 58' 0" W  View metadata report for BODC series reference number 355563
3555751987-08-17 17:24  — 1987-08-17 17:59 60° 19' 0" N  6° 0' 0" W  View metadata report for BODC series reference number 355575
3555871987-08-17 16:07  — 1987-08-17 16:42 60° 13' 59" N  5° 57' 0" W  View metadata report for BODC series reference number 355587
3555991987-08-17 14:38  — 1987-08-17 15:30 60° 10' 0" N  5° 57' 0" W  View metadata report for BODC series reference number 355599
3550281987-08-11 15:54  — 1987-08-11 16:17 60° 27' 0" N  2° 32' 59" W  View metadata report for BODC series reference number 355028
3550411987-08-13 05:12  — 1987-08-13 05:45 60° 28' 0" N  2° 31' 59" W  View metadata report for BODC series reference number 355041
3550531987-08-11 17:25  — 1987-08-11 17:52 60° 22' 0" N  2° 38' 59" W  View metadata report for BODC series reference number 355053
3550651987-08-13 07:05  — 1987-08-13 07:25 60° 22' 0" N  2° 38' 59" W  View metadata report for BODC series reference number 355065
3550771987-08-11 19:25 60° 25' 0" N  2° 42' 0" W  View metadata report for BODC series reference number 355077
3550891987-08-11 20:01 60° 25' 0" N  2° 42' 0" W  View metadata report for BODC series reference number 355089
3550901987-08-11 21:01 60° 25' 0" N  2° 42' 0" W  View metadata report for BODC series reference number 355090
3551081987-08-11 22:01 60° 25' 0" N  2° 42' 0" W  View metadata report for BODC series reference number 355108
3551211987-08-11 23:01 60° 25' 0" N  2° 42' 0" W  View metadata report for BODC series reference number 355121
3551331987-08-12 00:01 60° 25' 0" N  2° 42' 0" W  View metadata report for BODC series reference number 355133
3551451987-08-12 01:00 60° 25' 0" N  2° 42' 0" W  View metadata report for BODC series reference number 355145
3551571987-08-12 02:00 60° 25' 0" N  2° 42' 0" W  View metadata report for BODC series reference number 355157
3551691987-08-12 03:00 60° 25' 0" N  2° 42' 0" W  View metadata report for BODC series reference number 355169
3551701987-08-12 04:06 60° 25' 0" N  2° 42' 0" W  View metadata report for BODC series reference number 355170
3551821987-08-12 05:23 60° 25' 0" N  2° 42' 0" W  View metadata report for BODC series reference number 355182
3551941987-08-12 06:07 60° 25' 0" N  2° 42' 0" W  View metadata report for BODC series reference number 355194
3552131987-08-12 08:00 60° 25' 0" N  2° 42' 0" W  View metadata report for BODC series reference number 355213
3552251987-08-12 09:03 60° 25' 0" N  2° 42' 0" W  View metadata report for BODC series reference number 355225
3552371987-08-12 10:00 60° 25' 0" N  2° 42' 0" W  View metadata report for BODC series reference number 355237
3552491987-08-12 11:00 60° 25' 0" N  2° 42' 0" W  View metadata report for BODC series reference number 355249
3552501987-08-12 12:00 60° 25' 0" N  2° 42' 0" W  View metadata report for BODC series reference number 355250
3552621987-08-12 13:07 60° 25' 0" N  2° 42' 0" W  View metadata report for BODC series reference number 355262
3552741987-08-12 14:01 60° 25' 0" N  2° 42' 0" W  View metadata report for BODC series reference number 355274
3552861987-08-12 15:00 60° 25' 0" N  2° 42' 0" W  View metadata report for BODC series reference number 355286
3552981987-08-12 16:05 60° 25' 0" N  2° 42' 0" W  View metadata report for BODC series reference number 355298
3553051987-08-12 17:02 60° 25' 0" N  2° 42' 0" W  View metadata report for BODC series reference number 355305
3553171987-08-12 18:10 60° 25' 0" N  2° 42' 0" W  View metadata report for BODC series reference number 355317
3553291987-08-12 19:01 60° 25' 0" N  2° 42' 0" W  View metadata report for BODC series reference number 355329
3553301987-08-12 19:58 60° 25' 0" N  2° 42' 0" W  View metadata report for BODC series reference number 355330
3553421987-08-12 21:00 60° 25' 0" N  2° 42' 0" W  View metadata report for BODC series reference number 355342
3553541987-08-12 22:02 60° 25' 0" N  2° 42' 0" W  View metadata report for BODC series reference number 355354
3553661987-08-12 23:01 60° 25' 0" N  2° 42' 0" W  View metadata report for BODC series reference number 355366
3553781987-08-13 00:00 60° 25' 0" N  2° 42' 0" W  View metadata report for BODC series reference number 355378
3553911987-08-13 01:00 60° 25' 0" N  2° 42' 0" W  View metadata report for BODC series reference number 355391
3554091987-08-13 02:02  — 1987-08-13 04:12 60° 25' 0" N  2° 42' 0" W  View metadata report for BODC series reference number 355409
3554101987-08-16 12:32  — 1987-08-16 13:00 59° 45' 0" N  5° 54' 0" W  View metadata report for BODC series reference number 355410
3554221987-08-16 13:30  — 1987-08-16 14:12 59° 49' 59" N  5° 49' 59" W  View metadata report for BODC series reference number 355422
3554341987-08-16 14:46  — 1987-08-16 15:29 59° 55' 59" N  5° 46' 0" W  View metadata report for BODC series reference number 355434
3554461987-08-16 07:17  — 1987-08-16 07:39 59° 46' 59" N  6° 19' 59" W  View metadata report for BODC series reference number 355446
3554581987-08-17 23:37  — 1987-08-18 00:03 59° 51' 0" N  6° 15' 0" W  View metadata report for BODC series reference number 355458
3554711987-08-17 20:25  — 1987-08-17 21:05 59° 52' 59" N  6° 12' 0" W  View metadata report for BODC series reference number 355471
3554831987-08-17 22:30  — 1987-08-17 22:53 59° 53' 59" N  6° 24' 0" W  View metadata report for BODC series reference number 355483
3554951987-08-18 01:03  — 1987-08-18 01:39 59° 51' 0" N  6° 31' 0" W  View metadata report for BODC series reference number 355495
3555021987-08-18 02:25  — 1987-08-18 03:16 59° 47' 59" N  6° 39' 0" W  View metadata report for BODC series reference number 355502
3555141987-08-18 10:03  — 1987-08-18 10:42 59° 40' 0" N  7° 30' 0" W  View metadata report for BODC series reference number 355514
3555261987-08-18 07:25  — 1987-08-18 08:06 59° 40' 0" N  7° 2' 59" W  View metadata report for BODC series reference number 355526
3555381987-08-18 05:08  — 1987-08-18 05:58 59° 40' 0" N  6° 46' 0" W  View metadata report for BODC series reference number 355538
3549771987-08-11 03:00 60° 46' 0" N  3° 7' 59" W  View metadata report for BODC series reference number 354977
3549891987-08-11 04:00 60° 46' 0" N  3° 7' 59" W  View metadata report for BODC series reference number 354989
3549901987-08-11 05:00 60° 46' 0" N  3° 7' 59" W  View metadata report for BODC series reference number 354990
3550041987-08-11 06:02  — 1987-08-11 07:00 60° 46' 0" N  3° 7' 59" W  View metadata report for BODC series reference number 355004
3550161987-08-11 14:00  — 1987-08-11 14:22 60° 34' 59" N  2° 55' 0" W  View metadata report for BODC series reference number 355016
3544431987-08-22 05:38 56° 1' 0" N  9° 7' 59" W  View metadata report for BODC series reference number 354443
3544551987-08-22 06:45 56° 1' 0" N  9° 7' 59" W  View metadata report for BODC series reference number 354455
3544671987-08-22 07:48 56° 1' 0" N  9° 7' 59" W  View metadata report for BODC series reference number 354467
3544791987-08-22 08:48 56° 1' 0" N  9° 7' 59" W  View metadata report for BODC series reference number 354479
3544801987-08-22 09:58 56° 1' 0" N  9° 7' 59" W  View metadata report for BODC series reference number 354480
3544921987-08-22 11:06 56° 1' 0" N  9° 7' 59" W  View metadata report for BODC series reference number 354492
3545111987-08-22 12:07 56° 1' 0" N  9° 7' 59" W  View metadata report for BODC series reference number 354511
3545231987-08-22 13:03 56° 1' 0" N  9° 7' 59" W  View metadata report for BODC series reference number 354523
3545351987-08-22 14:00 56° 1' 0" N  9° 7' 59" W  View metadata report for BODC series reference number 354535
3545471987-08-22 15:05 56° 1' 0" N  9° 7' 59" W  View metadata report for BODC series reference number 354547
3545591987-08-22 16:05 56° 1' 0" N  9° 7' 59" W  View metadata report for BODC series reference number 354559
3545601987-08-22 17:03 56° 1' 0" N  9° 7' 59" W  View metadata report for BODC series reference number 354560
3545721987-08-22 18:00 56° 1' 0" N  9° 7' 59" W  View metadata report for BODC series reference number 354572
3545841987-08-22 18:56  — 1987-08-22 19:44 56° 1' 0" N  9° 7' 59" W  View metadata report for BODC series reference number 354584
3546031987-08-09 12:17  — 1987-08-09 13:00 61° 4' 59" N  3° 40' 0" W  View metadata report for BODC series reference number 354603
3552011987-08-12 07:04 60° 25' 0" N  2° 42' 0" W  View metadata report for BODC series reference number 355201
3546151987-08-09 14:37  — 1987-08-09 15:15 60° 52' 0" N  3° 19' 0" W  View metadata report for BODC series reference number 354615
3546271987-08-09 16:11  — 1987-08-09 16:50 60° 49' 0" N  3° 1' 59" W  View metadata report for BODC series reference number 354627
3546391987-08-11 10:04  — 1987-08-11 10:32 60° 49' 59" N  3° 1' 59" W  View metadata report for BODC series reference number 354639
3546401987-08-09 17:59  — 1987-08-09 18:43 60° 43' 0" N  3° 16' 59" W  View metadata report for BODC series reference number 354640
3546521987-08-11 11:48  — 1987-08-11 12:34 60° 43' 0" N  3° 16' 59" W  View metadata report for BODC series reference number 354652
3546641987-08-09 20:24 60° 46' 0" N  3° 7' 59" W  View metadata report for BODC series reference number 354664
3546761987-08-09 23:00 60° 46' 0" N  3° 7' 59" W  View metadata report for BODC series reference number 354676
3546881987-08-10 00:01 60° 46' 0" N  3° 7' 59" W  View metadata report for BODC series reference number 354688
3547071987-08-10 01:01 60° 46' 0" N  3° 7' 59" W  View metadata report for BODC series reference number 354707
3547191987-08-10 02:00 60° 46' 0" N  3° 7' 59" W  View metadata report for BODC series reference number 354719
3547201987-08-10 03:09 60° 46' 0" N  3° 7' 59" W  View metadata report for BODC series reference number 354720
3547321987-08-10 04:10 60° 46' 0" N  3° 7' 59" W  View metadata report for BODC series reference number 354732
3547441987-08-10 05:10 60° 46' 0" N  3° 7' 59" W  View metadata report for BODC series reference number 354744
3547561987-08-10 06:10 60° 46' 0" N  3° 7' 59" W  View metadata report for BODC series reference number 354756
3547681987-08-10 07:20 60° 46' 0" N  3° 7' 59" W  View metadata report for BODC series reference number 354768
3547811987-08-10 08:20 60° 46' 0" N  3° 7' 59" W  View metadata report for BODC series reference number 354781
3547931987-08-10 09:23 60° 46' 0" N  3° 7' 59" W  View metadata report for BODC series reference number 354793
3548001987-08-10 10:26 60° 46' 0" N  3° 7' 59" W  View metadata report for BODC series reference number 354800
3548121987-08-10 11:30 60° 46' 0" N  3° 7' 59" W  View metadata report for BODC series reference number 354812
3548241987-08-10 13:00 60° 46' 0" N  3° 7' 59" W  View metadata report for BODC series reference number 354824
3548361987-08-10 14:00 60° 46' 0" N  3° 7' 59" W  View metadata report for BODC series reference number 354836
3548481987-08-10 15:01 60° 46' 0" N  3° 7' 59" W  View metadata report for BODC series reference number 354848
3548611987-08-10 16:00 60° 46' 0" N  3° 7' 59" W  View metadata report for BODC series reference number 354861
3548731987-08-10 17:00 60° 46' 0" N  3° 7' 59" W  View metadata report for BODC series reference number 354873
3548851987-08-10 18:06 60° 46' 0" N  3° 7' 59" W  View metadata report for BODC series reference number 354885
3548971987-08-10 19:00 60° 46' 0" N  3° 7' 59" W  View metadata report for BODC series reference number 354897
3549041987-08-10 20:00 60° 46' 0" N  3° 7' 59" W  View metadata report for BODC series reference number 354904
3549161987-08-10 21:00 60° 46' 0" N  3° 7' 59" W  View metadata report for BODC series reference number 354916
3549281987-08-10 22:01 60° 46' 0" N  3° 7' 59" W  View metadata report for BODC series reference number 354928
3549411987-08-10 23:02 60° 46' 0" N  3° 7' 59" W  View metadata report for BODC series reference number 354941
3549531987-08-11 00:00 60° 46' 0" N  3° 7' 59" W  View metadata report for BODC series reference number 354953
3549651987-08-11 01:29 60° 46' 0" N  3° 7' 59" W  View metadata report for BODC series reference number 354965
3543751987-08-21 23:13 56° 1' 0" N  9° 7' 59" W  View metadata report for BODC series reference number 354375
3543871987-08-22 00:13 56° 1' 0" N  9° 7' 59" W  View metadata report for BODC series reference number 354387
3543991987-08-22 01:15 56° 1' 0" N  9° 7' 59" W  View metadata report for BODC series reference number 354399
3544061987-08-22 02:12 56° 1' 0" N  9° 7' 59" W  View metadata report for BODC series reference number 354406
3544181987-08-22 03:13 56° 1' 0" N  9° 7' 59" W  View metadata report for BODC series reference number 354418
3544311987-08-22 04:12 56° 1' 0" N  9° 7' 59" W  View metadata report for BODC series reference number 354431
3541421987-08-20 19:21 56° 1' 0" N  9° 15' 0" W  View metadata report for BODC series reference number 354142
3541541987-08-20 20:16 56° 1' 0" N  9° 15' 0" W  View metadata report for BODC series reference number 354154
3541661987-08-20 21:15 56° 1' 0" N  9° 15' 0" W  View metadata report for BODC series reference number 354166
3541781987-08-20 22:32 56° 1' 0" N  9° 15' 0" W  View metadata report for BODC series reference number 354178
3541911987-08-20 23:35 56° 1' 0" N  9° 15' 0" W  View metadata report for BODC series reference number 354191
3542091987-08-21 00:34 56° 1' 0" N  9° 15' 0" W  View metadata report for BODC series reference number 354209
3542101987-08-21 01:33 56° 1' 0" N  9° 15' 0" W  View metadata report for BODC series reference number 354210
3542221987-08-21 02:34 56° 1' 0" N  9° 15' 0" W  View metadata report for BODC series reference number 354222
3542341987-08-21 04:06  — 1987-08-21 06:26 56° 1' 0" N  9° 15' 0" W  View metadata report for BODC series reference number 354234
3542461987-08-21 09:28  — 1987-08-21 09:49 56° 4' 59" N  9° 7' 59" W  View metadata report for BODC series reference number 354246
3542581987-08-22 20:19  — 1987-08-22 20:38 56° 4' 59" N  9° 7' 59" W  View metadata report for BODC series reference number 354258
3542711987-08-21 10:56  — 1987-08-21 11:17 55° 55' 0" N  9° 10' 0" W  View metadata report for BODC series reference number 354271
3542831987-08-22 21:50  — 1987-08-22 22:06 55° 55' 0" N  9° 10' 0" W  View metadata report for BODC series reference number 354283
3542951987-08-21 14:27 56° 1' 0" N  9° 7' 59" W  View metadata report for BODC series reference number 354295
3543021987-08-21 16:09 56° 1' 0" N  9° 7' 59" W  View metadata report for BODC series reference number 354302
3543141987-08-21 17:12 56° 1' 0" N  9° 7' 59" W  View metadata report for BODC series reference number 354314
3543261987-08-21 18:09 56° 1' 0" N  9° 7' 59" W  View metadata report for BODC series reference number 354326
3543381987-08-21 19:40 56° 1' 0" N  9° 7' 59" W  View metadata report for BODC series reference number 354338
3543511987-08-21 20:55 56° 1' 0" N  9° 7' 59" W  View metadata report for BODC series reference number 354351
3543631987-08-21 21:55 56° 1' 0" N  9° 7' 59" W  View metadata report for BODC series reference number 354363